Hoek van Holland, Nederland

8:11 AM CET op 19 december 2014 (GMT +0100)
Hoek van Holland | Change Station
CLOSE
Current Station
Persoonlijk weerstation
Location: Hoek Van Holland, ZUID-HOLLAND
Geometrische hoogte: 3 ft
Nabije weerstations

Hoogte 3 ft 51.98 °N, 4.15 °E | Updated 27 seconds ago

Rain Showers
Regenbuien
51.4 °F
Voelt als 51.4 °F
N
33.0
Wind Variabel Wind van WZW
Gusts 51.0 mijl/u

Vandaag
Hoog -- | Laag -- °F
--% Kans op neerslag
Gisteren
Hoog -- | Laag -- °F
Precip. -- inches
8:48 AM 4:33 PM
Afnemende halvemaan, 9% visible
Druk 29.74 inches
Zicht 5.0 mijlen
Wolken Gering 700 ft
Merendeels bewolkt 900 ft
Merendeels bewolkt 1000 ft
Merendeels bewolkt 1500 ft
Dauwpunt 50 °F
Vochtigheid 96%
Neerslag 0.18 inches
Dikte sneeuw Niet beschikbaar.
UV 0 van de 12
Pollen Niet beschikbaar.
Luchtkwaliteit Niet beschikbaar.
Flu Activity Niet beschikbaar.
METAR EHRD 190655Z AUTO 23023G34KT 200V260 8000 SHRA FEW007 BKN009 BKN010 BKN015CB 12/11 Q1007 TEMPO 4000

More Conditions Fewer Conditions

Druk 29.74 inches
Zicht 5.0 mijlen
Wolken Gering 700 ft
Merendeels bewolkt 900 ft
Merendeels bewolkt 1000 ft
Merendeels bewolkt 1500 ft
Dauwpunt 50 °F
Vochtigheid 96%
Neerslag 0.18 inches
Dikte sneeuw Niet beschikbaar.
UV 0 van de 12
Pollen Niet beschikbaar.
Luchtkwaliteit Niet beschikbaar.
Flu Activity Niet beschikbaar.
METAR EHRD 190655Z AUTO 23023G34KT 200V260 8000 SHRA FEW007 BKN009 BKN010 BKN015CB 12/11 Q1007 TEMPO 4000

More Conditions Fewer Conditions

10-Day Weather Forecast

Almanac

Astronomie

Dec. 19, 2014 Opkomst Ondergang
Werkelijke tijd
Burgerlijke schemering
Nautische schemering
Astronomische schemering
Maan
Golflengte van het zichtbare licht
Daglengte
Tomorrow will be .
, % of the Moon is Illuminated

Extremen vandaag

Country Highs Country Lows

Community

WunderPhotos

Upload Photos

1,778,952 foto’s ge-upload!

WunderBlogs® & News

Nearby

Luchtkwaliteit

  Luchtkwaliteit LK-index Verontreinigende stof
Not available.

Dikte sneeuw

Station Depth Geometrische hoogte

Aardbevingen

Stad Distance Mag. Time & Date
Minimum magnitude displayed is 2.5.

Watertemperatuur langs de kust

Plaats Temperatuur

Nabije weerstations